Gyoychay, Azerbaijan

10:49 PM AZST on July 31, 2014 (GMT +0500)
Gabala International Airport (UBBQ) Elev 1109 ft | 40.81 °N, 47.73 °E | Change Station

Current weather conditions updated 49 minutes ago

Scattered Clouds
Scattered Clouds
79 °F
Feels Like 79 °F
N
5
Wind Variable Wind from South

Tomorrow is forecast to be Warmer than today.

Today
High -- | Low -- °F
--% Chance of Precip.
Yesterday
High -- | Low -- °F
Precip. -- in
6:44 AM 9:05 PM
Waxing Crescent, 20% visible
Pressure 29.89 in
Visibility 6.2 miles
Clouds Scattered Clouds 10000 ft
Dew Point 48 °F
Humidity 34%
Rainfall 0.00 in
Snow Depth Not available.
UV 0 out of 12
Pollen Not available.
Air Quality Not available.
Flu Activity Not available.
METAR UBBQ 311700Z 17004KT 9999 SCT100 26/09 Q1012 R16/CLRD70 NOSIG RMK MT OBSC

More Conditions Fewer Conditions

Pressure 29.89 in
Visibility 6.2 miles
Clouds Scattered Clouds 10000 ft
Dew Point 48 °F
Humidity 34%
Rainfall 0.00 in
Snow Depth Not available.
UV 0 out of 12
Pollen Not available.
Air Quality Not available.
Flu Activity Not available.
METAR UBBQ 311700Z 17004KT 9999 SCT100 26/09 Q1012 R16/CLRD70 NOSIG RMK MT OBSC

More Conditions Fewer Conditions

10-Day Weather Forecast

Almanac

Astronomy

Jul. 31, 2014 Rise Set
Actual Time 6:44 AM AZST 9:05 PM AZST
Civil Twilight 6:13 AM AZST 9:36 PM AZST
Nautical Twilight 5:35 AM AZST 10:14 PM AZST
Astronomical Twilight 4:53 AM AZST 10:56 PM AZST
Moon 10:52 AM AZST 11:05 PM AZST
Length of Visible Light 15h 22m
Length of Day
14h 21m
Tomorrow will be 2m 0s shorter.
Waxing Crescent, 20% of the Moon is Illuminated
Today
Waxing Crescent
Aug 3
First Quarter
Aug 10
Full
Aug 17
Last Quarter
Aug 25
New

Today's Extremes

Country Highs Country Lows

Community

WunderPhotos

Upload Photos

1,739,386 photos uploaded!

Nearby

Snow Depth

Not available.

Earthquake Activity

City Distance Mag. Time & Date
No recent earthquake activity has been reported nearby.
Minimum magnitude displayed is 2.5.

Coastal Water Temperatures

Place Temperature
No Stations Reporting

Nearby Weather Stations

There are no personal weather stations in this area.